Flight Track Log - Related Links

Times and Time Zones

All times are in EDT time to prevent confusion due to time zone crossing. See the SKW6528 flight status page for this flight to view local times or setup timezone preferences in your user account.


Time Position Orientation Groundspeed Altitude Reporting Facility
EDT Latitude Longitude Course Direction KTS MPH feet Rate Location/Type
Mon 08:40:00 AM 34.9286 -118.4512 129° Southeast  Level FlightAware Approximate
Mon 08:41:00 AM 34.8496 -118.3439 132° Southeast  Level FlightAware Approximate
Mon 08:42:00 AM 34.7659 -118.2427 131° Southeast  Level FlightAware Approximate
Mon 08:43:00 AM 34.6876 -118.1349 131° Southeast  Level FlightAware Approximate
Mon 08:44:00 AM 34.6189 -118.0278 83° East  Level FlightAware Approximate
Mon 08:45:00 AM 34.6332 -117.8851 83° East  Level FlightAware Approximate
Mon 08:46:00 AM 34.6552 -117.7439 81° East  Level FlightAware Approximate
Mon 08:47:00 AM 34.6738 -117.6020 81° East  Level FlightAware Approximate
Mon 08:48:00 AM 34.6923 -117.4599 81° East  Level FlightAware Approximate
Mon 08:49:00 AM 34.7135 -117.3196 71° East  Level FlightAware Approximate
Mon 08:50:00 AM 34.7455 -117.1818 74° East  Level FlightAware Approximate
Mon 08:51:00 AM 34.7781 -117.0435 74° East  Level FlightAware Approximate
Mon 08:52:00 AM 34.8132 -116.9061 70° East  Level FlightAware Approximate
Mon 08:53:00 AM 34.8572 -116.7732 49° Northeast  Level FlightAware Approximate
Mon 08:54:00 AM 34.9350 -116.6645 47° Northeast  Level FlightAware Approximate
Mon 08:55:00 AM 35.0150 -116.5583 47° Northeast  Level FlightAware Approximate
Mon 08:56:00 AM 35.0912 -116.4570 47° Northeast  Level FlightAware Approximate
Mon 08:57:00 AM 35.1674 -116.3555 47° Northeast  Level FlightAware Approximate
Mon 08:58:00 AM 35.2434 -116.2538 48° Northeast  Level FlightAware Approximate
Mon 08:59:00 AM 35.3193 -116.1519 48° Northeast  Level FlightAware Approximate
Mon 09:00:00 AM 35.3952 -116.0499 48° Northeast  Level FlightAware Approximate
Mon 09:01:00 AM 35.4710 -115.9476 48° Northeast  Level FlightAware Approximate
Mon 09:02:00 AM 35.5466 -115.8451 48° Northeast  Level FlightAware Approximate
Mon 09:03:00 AM 35.6223 -115.7425 47° Northeast  Level FlightAware Approximate
Mon 09:04:00 AM 35.6990 -115.6410 47° Northeast  Level FlightAware Approximate
Mon 09:05:00 AM 35.7756 -115.5393 47° Northeast  Level FlightAware Approximate
Mon 09:06:00 AM 35.8521 -115.4374 47° Northeast  Level FlightAware Approximate
Mon 09:07:00 AM 35.9286 -115.3353 47° Northeast  Level FlightAware Approximate
Mon 09:08:00 AM 36.0049 -115.2330 47° Northeast  Level FlightAware Approximate
Mon 09:09:00 AM 36.0746 -115.1253 68° East  Level FlightAware Approximate
Mon 09:10:00 AM 36.1159 -114.9957 68° East  Level FlightAware Approximate
Mon 09:11:00 AM 36.1571 -114.8659 69° East  Level FlightAware Approximate
Mon 09:12:00 AM 36.1981 -114.7359 69° East  Level FlightAware Approximate
Mon 09:13:00 AM 36.2390 -114.6059 69° East  Level FlightAware Approximate
Mon 09:14:00 AM 36.2798 -114.4756 69° East  Level FlightAware Approximate
Mon 09:15:00 AM 36.3204 -114.3453 69° East  Level FlightAware Approximate
Mon 09:16:00 AM 36.3605 -114.2146 70° East  Level FlightAware Approximate
Mon 09:17:00 AM 36.3995 -114.0834 70° East  Level FlightAware Approximate
Mon 09:18:00 AM 36.4383 -113.9520 70° East  Level FlightAware Approximate
Mon 09:19:00 AM 36.4770 -113.8205 70° East  Level FlightAware Approximate
Mon 09:20:00 AM 36.5156 -113.6888 70° East  Level FlightAware Approximate
Mon 09:21:00 AM 36.5540 -113.5571 70° East  Level FlightAware Approximate
Mon 09:22:00 AM 36.5922 -113.4251 70° East  Level FlightAware Approximate
Mon 09:23:00 AM 36.6303 -113.2931 70° East  Level FlightAware Approximate
Mon 09:24:00 AM 36.6683 -113.1609 70° East  Level FlightAware Approximate
Mon 09:25:00 AM 36.7061 -113.0286 70° East  Level FlightAware Approximate
Mon 09:26:00 AM 36.7438 -112.8962 70° East  Level FlightAware Approximate
Mon 09:27:00 AM 36.7853 -112.7494 71° East  Level FlightAware Approximate
Mon 09:27:15 AM 35.4883 -119.1975 71° East 246 283 4,200  Level Los Angeles Center
Mon 09:28:00 AM 36.8266 -112.6025 71° East  Level FlightAware Approximate
Mon 09:28:16 AM 35.4181 -119.1853 172° South 293 337 6,500  Level Los Angeles Center
Mon 09:29:00 AM 36.8678 -112.4554 71° East  Level FlightAware Approximate
Mon 09:29:17 AM 35.3617 -119.1094 132° Southeast 298 343 8,800  Level Los Angeles Center
Mon 09:30:00 AM 36.9088 -112.3082 71° East  Level FlightAware Approximate
Mon 09:30:18 AM 35.3075 -119.0283 129° Southeast 303 349 10,700  Level Los Angeles Center
Mon 09:31:00 AM 36.9496 -112.1608 71° East  Level FlightAware Approximate
Mon 09:31:20 AM 35.2692 -118.9347 117° Southeast 315 362 12,500  Level Los Angeles Center
Mon 09:32:00 AM 36.9902 -112.0132 71° East  Level FlightAware Approximate
Mon 09:32:21 AM 35.2939 -118.8253 75° East 328 377 13,700  Level Los Angeles Center
Mon 09:33:22 AM 35.3197 -118.7122 74° East 338 389 15,300 1,475 Climbing Los Angeles Center
Mon 09:34:23 AM 35.3472 -118.5958 74° East 347 399 16,700 1,377 Climbing Los Angeles Center
Mon 09:35:24 AM 35.3739 -118.4756 75° East 357 411 18,100 1,279 Climbing Los Angeles Center
Mon 09:36:25 AM 35.4022 -118.3522 74° East 369 425 19,300 1,131 Climbing Los Angeles Center
Mon 09:37:26 AM 35.4314 -118.2278 74° East 378 435 20,400 934 Climbing Los Angeles Center
Mon 09:38:27 AM 35.4611 -118.0972 74° East 392 451 21,200 976 Climbing Los Angeles Center
Mon 09:39:29 AM 35.4981 -117.9353 74° East 405 466 22,400 1,171 Climbing Los Angeles Center
Mon 09:40:30 AM 35.5281 -117.7994 75° East 408 470 23,600 1,131 Climbing Los Angeles Center
Mon 09:41:31 AM 35.5592 -117.6631 74° East 411 473 24,700 878 Climbing Los Angeles Center
Mon 09:42:33 AM 35.5883 -117.5275 75° East 409 471 25,400 634 Climbing Los Angeles Center
Mon 09:43:34 AM 35.6183 -117.3889 75° East 414 476 26,000 639 Climbing Los Angeles Center
Mon 09:44:35 AM 35.6489 -117.2458 75° East 425 489 26,700 732 Climbing Los Angeles Center
Mon 09:45:37 AM 35.6794 -117.1044 75° East 427 491 27,500 634 Climbing Los Angeles Center
Mon 09:46:38 AM 35.7097 -116.9606 75° East 431 496 28,000 488 Climbing Los Angeles Center
Mon 09:47:40 AM 35.7408 -116.8156 75° East 435 501 28,500 488 Climbing Los Angeles Center
Mon 09:48:41 AM 35.7725 -116.6706 75° East 438 504 29,000 492 Climbing Los Angeles Center
Mon 09:49:42 AM 35.8033 -116.5242 75° East 441 507 29,500 537 Climbing Los Angeles Center
Mon 09:50:44 AM 35.8400 -116.3472 76° East 443 510 30,100 537 Climbing Los Angeles Center
Mon 09:51:45 AM 35.8714 -116.1986 75° East 446 513 30,600 488 Climbing Los Angeles Center
Mon 09:52:47 AM 35.9019 -116.0508 76° East 446 513 31,100 390 Climbing Los Angeles Center
Mon 09:53:48 AM 35.9325 -115.9031 76° East 444 511 31,400 293 Climbing Los Angeles Center
Mon 09:54:50 AM 35.9611 -115.7567 76° East 447 514 31,700 293 Climbing Los Angeles Center
Mon 09:55:51 AM 35.9919 -115.6058 76° East 454 522 32,000 344 Climbing Los Angeles Center
Mon 09:56:52 AM 36.0253 -115.4267 77° East 451 519 32,400 390 Climbing Los Angeles Center
Mon 09:57:54 AM 36.0575 -115.2772 75° East 455 524 32,800 293 Climbing Los Angeles Center
Mon 09:58:55 AM 36.0881 -115.1278 76° East 454 522 33,000 97 Climbing Los Angeles Center
Mon 09:59:58 AM 36.1333 -114.9831 69° East 453 521 33,000  Level Los Angeles Center
Mon 10:01:00 AM 36.1797 -114.8364 69° East 459 528 33,000  Level Los Angeles Center
Mon 10:02:01 AM 36.2258 -114.6883 69° East 461 531 33,000  Level Los Angeles Center
Mon 10:03:03 AM 36.2792 -114.5100 70° East 462 532 33,000  Level Los Angeles Center
Mon 10:04:04 AM 36.3236 -114.3614 70° East 462 532 33,000  Level Los Angeles Center
Mon 10:05:06 AM 36.3686 -114.2111 70° East 465 535 33,000  Level Los Angeles Center
Mon 10:06:07 AM 36.4147 -114.0586 69° East 470 541 33,000  Level Los Angeles Center
Mon 10:07:09 AM 36.4606 -113.9044 70° East 475 547 33,000  Level Los Angeles Center
Mon 10:08:22 AM 36.5064 -113.7500 70° East 477 549 33,000  Level Los Angeles Center
Mon 10:09:24 AM 36.5600 -113.5689 70° East 475 547 33,000  Level Los Angeles Center
Mon 10:10:26 AM 36.6136 -113.3836 70° East 476 548 33,000  Level Los Angeles Center
Mon 10:11:27 AM 36.6583 -113.2300 70° East 475 547 33,000  Level Los Angeles Center
Mon 10:12:29 AM 36.7036 -113.0761 70° East 476 548 33,000  Level Los Angeles Center
Mon 10:13:30 AM 36.7475 -112.9222 70° East 474 545 33,000  Level Los Angeles Center
Mon 10:14:32 AM 36.7914 -112.7669 71° East 477 549 33,000  Level Los Angeles Center
Mon 10:15:34 AM 36.8364 -112.6106 70° East 480 552 33,000  Level Los Angeles Center
Mon 10:16:35 AM 36.8894 -112.4222 71° East 483 556 33,000  Level Los Angeles Center
Mon 10:17:37 AM 36.9333 -112.2653 71° East 483 556 33,000  Level Los Angeles Center
Mon 10:18:38 AM 36.9775 -112.1069 71° East 485 558 33,000  Level Los Angeles Center
Mon 10:19:40 AM 37.0292 -111.9536 67° East 483 556 33,000  Level Los Angeles Center
Mon 10:20:29 AM 37.0739 -111.8303 66° East 485 558 33,000  Level Denver Center
Mon 10:21:31 AM 37.1281 -111.6783 66° East 483 556 33,000  Level Denver Center
Mon 10:22:33 AM 37.1786 -111.5247 68° East 481 554 33,000  Level Denver Center
Mon 10:23:34 AM 37.2422 -111.3394 67° East 485 558 33,000  Level Denver Center
Mon 10:24:36 AM 37.2961 -111.1839 66° East 488 562 33,000  Level Denver Center
Mon 10:25:37 AM 37.3494 -111.0289 67° East 487 560 33,000  Level Denver Center
Mon 10:26:39 AM 37.4025 -110.8706 67° East 493 567 33,000  Level Denver Center
Mon 10:27:41 AM 37.4550 -110.7142 67° East 488 562 33,000  Level Denver Center
Mon 10:28:42 AM 37.5094 -110.5558 67° East 493 567 33,000  Level Denver Center
Mon 10:29:44 AM 37.5711 -110.3683 67° East 495 570 33,000  Level Denver Center
Mon 10:30:46 AM 37.6225 -110.2158 67° East 494 568 33,000  Level Denver Center
Mon 10:31:48 AM 37.6731 -110.0611 68° East 496 571 33,000  Level Denver Center
Mon 10:32:49 AM 37.7328 -109.8800 67° East 500 575 33,000  Level Denver Center
Mon 10:33:51 AM 37.7833 -109.7258 67° East 497 572 33,000  Level Denver Center
Mon 10:34:53 AM 37.8419 -109.5442 68° East 498 573 33,000  Level Denver Center
Mon 10:35:55 AM 37.8919 -109.3894 68° East 496 571 33,000  Level Denver Center
Mon 10:36:57 AM 37.9489 -109.2114 68° East 490 564 33,000  Level Denver Center
Mon 10:37:59 AM 37.9983 -109.0581 68° East 489 563 33,000  Level Denver Center
Mon 10:39:01 AM 38.0469 -108.9036 68° East 491 565 33,000  Level Denver Center
Mon 10:40:03 AM 38.0989 -108.7361 68° East 492 566 33,000  Level Denver Center
Mon 10:41:05 AM 38.1553 -108.5592 68° East 487 560 33,000  Level Denver Center
Mon 10:42:07 AM 38.2028 -108.4053 69° East 489 563 33,000  Level Denver Center
Mon 10:43:09 AM 38.2594 -108.2239 68° East 494 568 33,000  Level Denver Center
Mon 10:44:11 AM 38.3067 -108.0678 69° East 494 568 33,000  Level Denver Center
Mon 10:45:13 AM 38.3639 -107.8869 68° East 494 568 33,000  Level Denver Center
Mon 10:46:15 AM 38.4108 -107.7289 69° East 498 573 33,000  Level Denver Center
Mon 10:47:17 AM 38.4742 -107.5475 66° East 501 577 33,000  Level Denver Center
Mon 10:48:19 AM 38.5381 -107.4036 60° Northeast 493 567 33,000 -290 Level Denver Center
Mon 10:49:21 AM 38.6125 -107.2347 61° Northeast 491 565 32,400 -774 Descending Denver Center
Mon 10:50:23 AM 38.6831 -107.0800 60° Northeast 504 580 31,400 -677 Descending Denver Center
Mon 10:51:25 AM 38.7511 -106.9242 61° Northeast 502 578 31,000 -290 Descending Denver Center
Mon 10:52:27 AM 38.8194 -106.7714 60° Northeast 498 573 30,800 -919 Descending Denver Center
Mon 10:53:29 AM 38.8983 -106.5936 60° Northeast 494 568 29,100 -1,355 Descending Denver Center
Mon 10:54:31 AM 38.9631 -106.4525 59° Northeast 483 556 28,000 -1,016 Descending Denver Center
Mon 10:55:33 AM 39.0378 -106.2894 59° Northeast 477 549 27,000 -441 Descending Denver Center
Mon 10:56:47 AM 39.1033 -106.1453 60° Northeast 471 542 27,000  Level Denver Center
Mon 10:57:49 AM 39.1797 -105.9728 60° Northeast 471 542 27,000 -1,355 Level Denver Center
Mon 10:58:51 AM 39.2444 -105.8261 60° Northeast 468 539 24,200 -2,565 Descending Denver Center
Mon 10:59:53 AM 39.3047 -105.6933 60° Northeast 428 493 21,700 -2,592 Descending Denver Center
Mon 11:00:56 AM 39.3689 -105.5425 61° Northeast 406 467 18,800 -2,256 Descending Denver Center
Mon 11:01:58 AM 39.3975 -105.4142 74° East 373 429 17,000 -1,452 Descending Denver Center
Mon 11:03:00 AM 39.4042 -105.2850 86° East 354 407 15,800 -1,065 Descending Denver Center
Mon 11:04:02 AM 39.4089 -105.1711 87° East 323 372 14,800 -1,016 Descending Denver Center
Mon 11:05:04 AM 39.4144 -105.0547 86° East 307 353 13,700 -871 Descending Denver Center
Mon 11:06:06 AM 39.4189 -104.9497 87° East 298 343 13,000 -871 Descending Denver Center
Mon 11:07:08 AM 39.4289 -104.8431 83° East 280 322 11,900 -968 Descending Denver Center
Mon 11:08:10 AM 39.4603 -104.7658 62° Northeast 247 284 11,000 -484 Descending Denver Center
Mon 11:09:12 AM 39.5256 -104.7164 30° Northeast 251 289 10,900 -581 Descending Denver Center
Mon 11:10:14 AM 39.5828 -104.6717 31° Northeast 240 276 9,800 -919 Descending Denver Center
Mon 11:11:16 AM 39.6436 -104.6628 North 211 243 9,000 -838 Descending Denver Center
Mon 11:12:30 AM 39.7058 -104.6614 North 187 215 7,900 -892 Descending Denver Center

Login

Don't have an account? Register now (free) for customized features, flight alerts, and more!